createdAt,value
2018-07-05T00:02:23.457Z,20.51
2018-07-05T00:05:03.223Z,20.57
2018-07-05T00:07:43.119Z,20.47
2018-07-05T00:10:23.055Z,20.52
2018-07-05T00:13:02.864Z,20.52
2018-07-05T00:15:42.647Z,20.48
2018-07-05T00:18:22.692Z,20.25
2018-07-05T00:21:02.515Z,20.26
2018-07-05T00:23:42.648Z,19.89
2018-07-05T00:26:22.485Z,19.99
2018-07-05T00:29:02.534Z,20.03
2018-07-05T00:31:42.391Z,19.79
2018-07-05T00:34:22.340Z,19.56
2018-07-05T00:37:02.236Z,20.03
2018-07-05T00:39:42.227Z,19.86
2018-07-05T00:42:22.136Z,19.85
2018-07-05T00:45:02.324Z,19.93
2018-07-05T00:47:42.179Z,19.65
2018-07-05T00:50:22.212Z,19.79
2018-07-05T00:53:01.972Z,19.89
2018-07-05T00:55:41.652Z,19.73
2018-07-05T00:58:21.407Z,19.62
2018-07-05T01:01:01.200Z,19.37
2018-07-05T01:03:40.836Z,19.69
2018-07-05T01:06:20.591Z,19.80
2018-07-05T01:09:00.550Z,19.58
2018-07-05T01:11:40.788Z,19.69
2018-07-05T01:14:20.618Z,19.53
2018-07-05T01:17:00.909Z,19.69
2018-07-05T01:19:41.036Z,19.45
2018-07-05T01:22:21.607Z,19.33
2018-07-05T01:25:01.491Z,19.49
2018-07-05T01:27:41.237Z,19.48
2018-07-05T01:30:21.143Z,19.49
2018-07-05T01:33:01.097Z,19.43
2018-07-05T01:35:40.838Z,19.42
2018-07-05T01:38:20.823Z,19.28
2018-07-05T01:41:01.011Z,19.11
2018-07-05T01:43:41.108Z,19.28
2018-07-05T01:46:21.047Z,19.29
2018-07-05T01:49:01.224Z,19.30
2018-07-05T01:51:40.939Z,19.33
2018-07-05T01:54:21.008Z,19.38
2018-07-05T01:57:00.715Z,19.41
2018-07-05T01:59:41.219Z,19.36
2018-07-05T02:02:20.896Z,19.44
2018-07-05T02:05:00.904Z,19.43
2018-07-05T02:07:40.604Z,19.37
2018-07-05T02:10:20.672Z,19.36
2018-07-05T02:13:00.379Z,19.26
2018-07-05T02:15:40.511Z,19.29
2018-07-05T02:18:20.436Z,19.33
2018-07-05T02:21:00.404Z,19.39
2018-07-05T02:23:40.128Z,19.21
2018-07-05T02:26:19.940Z,19.35
2018-07-05T02:28:59.764Z,19.12
2018-07-05T02:31:39.936Z,19.21
2018-07-05T02:34:19.756Z,19.40
2018-07-05T02:36:59.559Z,19.26
2018-07-05T02:39:44.580Z,19.28
2018-07-05T02:42:24.707Z,19.21
2018-07-05T02:45:04.589Z,19.36
2018-07-05T02:47:44.347Z,19.54
2018-07-05T02:50:24.167Z,19.72
2018-07-05T02:53:04.009Z,19.76
2018-07-05T02:55:43.770Z,19.55
2018-07-05T02:58:23.597Z,19.20
2018-07-05T03:01:04.256Z,19.55
2018-07-05T03:03:44.028Z,19.20
2018-07-05T03:06:23.891Z,18.85
2018-07-05T03:09:05.053Z,18.85
2018-07-05T03:11:44.876Z,19.02
2018-07-05T03:14:24.814Z,18.91
2018-07-05T03:17:04.625Z,19.12
2018-07-05T03:19:44.389Z,19.18
2018-07-05T03:22:24.142Z,19.20
2018-07-05T03:25:04.137Z,19.35
2018-07-05T03:27:43.929Z,19.29
2018-07-05T03:30:24.019Z,19.39
2018-07-05T03:33:03.728Z,19.46
2018-07-05T03:35:43.707Z,19.54
2018-07-05T03:38:23.312Z,19.43
2018-07-05T03:41:03.153Z,18.79
2018-07-05T03:43:42.781Z,18.85
2018-07-05T03:46:22.996Z,19.26
2018-07-05T03:49:02.832Z,19.25
2018-07-05T03:51:42.783Z,19.54
2018-07-05T03:54:22.555Z,19.71
2018-07-05T03:57:02.600Z,20.02
2018-07-05T03:59:42.473Z,20.14
2018-07-05T04:02:22.184Z,20.30
2018-07-05T04:05:01.905Z,20.31
2018-07-05T04:07:41.743Z,20.22
2018-07-05T04:10:21.512Z,20.04
2018-07-05T04:13:01.471Z,20.29
2018-07-05T04:15:41.349Z,20.41
2018-07-05T04:18:21.180Z,20.41
2018-07-05T04:21:01.039Z,20.27
2018-07-05T04:23:40.864Z,20.20
2018-07-05T04:26:20.792Z,20.41
2018-07-05T04:29:00.855Z,20.41
2018-07-05T04:31:40.791Z,20.28
2018-07-05T04:34:20.721Z,19.87
2018-07-05T04:37:00.376Z,19.48
2018-07-05T04:39:40.300Z,20.18
2018-07-05T04:42:20.076Z,20.25
2018-07-05T04:44:59.896Z,20.46
2018-07-05T04:47:40.084Z,20.51
2018-07-05T04:50:20.372Z,20.77
2018-07-05T04:53:00.332Z,20.84
2018-07-05T04:55:40.624Z,20.95
2018-07-05T04:58:20.426Z,21.15
2018-07-05T05:01:00.121Z,21.24
2018-07-05T05:03:39.927Z,21.33
2018-07-05T05:06:20.060Z,21.42
2018-07-05T05:08:59.923Z,21.39
2018-07-05T05:11:39.964Z,21.50
2018-07-05T05:14:19.819Z,21.59
2018-07-05T05:16:59.691Z,21.60
2018-07-05T05:19:39.376Z,21.62
2018-07-05T05:22:19.279Z,21.61
2018-07-05T05:24:58.979Z,21.13
2018-07-05T05:27:38.721Z,21.25
2018-07-05T05:30:18.410Z,21.55
2018-07-05T05:32:58.379Z,21.81
2018-07-05T05:35:38.072Z,22.05
2018-07-05T05:38:18.087Z,21.91
2018-07-05T05:40:58.165Z,22.15
2018-07-05T05:43:38.435Z,22.32
2018-07-05T05:46:18.091Z,22.50
2018-07-05T05:48:57.927Z,22.69
2018-07-05T05:51:37.688Z,22.86
2018-07-05T05:54:17.572Z,22.79
2018-07-05T05:56:57.179Z,22.31
2018-07-05T05:59:36.956Z,22.69
2018-07-05T06:02:16.776Z,22.61
2018-07-05T06:04:56.632Z,22.85
2018-07-05T06:07:36.372Z,22.92
2018-07-05T06:10:16.281Z,22.37
2018-07-05T06:12:55.907Z,22.56
2018-07-05T06:15:36.203Z,22.90
2018-07-05T06:18:15.948Z,23.08
2018-07-05T06:20:55.740Z,22.94
2018-07-05T06:23:35.459Z,23.39
2018-07-05T06:26:15.505Z,23.65
2018-07-05T06:28:55.348Z,23.36
2018-07-05T06:31:35.184Z,23.56
2018-07-05T06:34:15.046Z,23.57
2018-07-05T06:36:54.879Z,24.14
2018-07-05T06:39:34.777Z,24.25
2018-07-05T06:42:14.625Z,24.16
2018-07-05T06:44:54.418Z,24.01
2018-07-05T06:47:34.981Z,24.22
2018-07-05T06:50:14.808Z,24.13
2018-07-05T06:52:54.454Z,24.07
2018-07-05T06:55:34.327Z,24.25
2018-07-05T06:58:14.581Z,23.83
2018-07-05T07:00:54.487Z,23.75
2018-07-05T07:03:34.339Z,23.60
2018-07-05T07:06:14.044Z,22.79
2018-07-05T07:08:54.087Z,22.73
2018-07-05T07:11:33.567Z,23.17
2018-07-05T07:14:13.380Z,22.84
2018-07-05T07:16:53.105Z,22.90
2018-07-05T07:19:32.867Z,22.90
2018-07-05T07:22:12.621Z,23.33
2018-07-05T07:24:52.546Z,23.03
2018-07-05T07:27:32.323Z,23.21
2018-07-05T07:30:12.353Z,23.15
2018-07-05T07:32:52.243Z,23.20
2018-07-05T07:35:32.044Z,23.46
2018-07-05T07:38:12.018Z,23.60
2018-07-05T07:40:52.132Z,23.76
2018-07-05T07:43:19.613Z,23.35
2018-07-05T07:45:46.975Z,23.43
2018-07-05T07:48:14.495Z,23.43
2018-07-05T07:50:41.784Z,23.36
2018-07-05T07:53:09.077Z,23.47
2018-07-05T07:55:36.386Z,23.42
2018-07-05T07:58:03.666Z,23.38
2018-07-05T08:00:30.952Z,23.16
2018-07-05T08:02:58.269Z,23.39
2018-07-05T08:05:25.574Z,23.38
2018-07-05T08:07:53.232Z,23.16
2018-07-05T08:10:20.800Z,23.07
2018-07-05T08:12:48.477Z,22.61
2018-07-05T08:15:15.775Z,22.76
2018-07-05T08:17:43.276Z,23.27
2018-07-05T08:20:10.803Z,23.19
2018-07-05T08:22:38.094Z,23.04
2018-07-05T08:25:05.408Z,22.48
2018-07-05T08:27:32.703Z,22.19
2018-07-05T08:29:59.984Z,22.11
2018-07-05T08:32:27.505Z,22.56
2018-07-05T08:34:54.875Z,22.36
2018-07-05T08:37:22.184Z,22.29
2018-07-05T08:39:49.868Z,22.49
2018-07-05T08:42:17.162Z,22.21
2018-07-05T08:44:44.560Z,22.38
2018-07-05T08:47:12.040Z,22.10
2018-07-05T08:49:39.331Z,22.64
2018-07-05T08:52:06.724Z,22.59
2018-07-05T08:54:34.224Z,22.51
2018-07-05T08:57:01.577Z,22.69
2018-07-05T08:59:28.855Z,22.55
2018-07-05T09:01:56.674Z,22.59
2018-07-05T09:04:24.044Z,22.66
2018-07-05T09:06:51.323Z,23.01
2018-07-05T09:09:18.761Z,23.38
2018-07-05T09:11:46.161Z,23.34
2018-07-05T09:14:13.452Z,23.48
2018-07-05T09:16:40.780Z,23.40
2018-07-05T09:19:08.056Z,23.56
2018-07-05T09:21:35.356Z,23.96
2018-07-05T09:24:03.797Z,23.94
2018-07-05T09:26:31.128Z,23.63
2018-07-05T09:28:58.430Z,23.44
2018-07-05T09:31:25.970Z,24.14
2018-07-05T09:33:53.287Z,23.96
2018-07-05T09:36:20.601Z,24.55
2018-07-05T09:38:48.106Z,24.49
2018-07-05T09:41:15.380Z,24.69
2018-07-05T09:43:42.667Z,24.87
2018-07-05T09:46:10.388Z,25.33
2018-07-05T09:48:37.677Z,24.54
2018-07-05T09:51:05.284Z,24.65
2018-07-05T09:53:32.768Z,24.81
2018-07-05T09:56:00.206Z,24.38
2018-07-05T09:58:27.492Z,24.63
2018-07-05T10:00:54.875Z,23.93
2018-07-05T10:03:22.885Z,24.34
2018-07-05T10:05:50.236Z,24.24
2018-07-05T10:08:18.643Z,24.46
2018-07-05T10:10:45.944Z,23.93
2018-07-05T10:13:13.778Z,23.64
2018-07-05T10:15:41.524Z,24.03
2018-07-05T10:18:08.880Z,24.00
2018-07-05T10:20:36.164Z,24.18
2018-07-05T10:23:03.695Z,24.08
2018-07-05T10:25:31.050Z,23.75
2018-07-05T10:27:58.335Z,23.72
2018-07-05T10:30:38.439Z,23.91
2018-07-05T10:33:18.079Z,23.95
2018-07-05T10:35:45.550Z,23.94
2018-07-05T10:38:12.834Z,23.65
2018-07-05T10:40:52.776Z,23.76
2018-07-05T10:43:32.519Z,23.79
2018-07-05T10:46:12.366Z,23.62
2018-07-05T10:48:52.304Z,23.63
2018-07-05T10:51:32.224Z,23.83
2018-07-05T10:54:11.959Z,24.09
2018-07-05T10:56:51.855Z,24.07
2018-07-05T10:59:31.616Z,24.13
2018-07-05T11:02:11.931Z,23.65
2018-07-05T11:04:51.857Z,23.46
2018-07-05T11:07:31.752Z,23.44
2018-07-05T11:10:11.487Z,23.49
2018-07-05T11:12:51.424Z,23.21
2018-07-05T11:15:31.290Z,23.08
2018-07-05T11:18:11.423Z,22.76
2018-07-05T11:20:51.011Z,23.13
2018-07-05T11:23:30.719Z,22.84
2018-07-05T11:26:10.496Z,23.15
2018-07-05T11:28:50.219Z,23.42
2018-07-05T11:31:30.073Z,23.70
2018-07-05T11:34:09.924Z,23.72
2018-07-05T11:36:49.745Z,24.16
2018-07-05T11:39:29.643Z,24.07
2018-07-05T11:42:09.364Z,24.03
2018-07-05T11:44:49.193Z,23.62
2018-07-05T11:47:28.852Z,24.21
2018-07-05T11:50:08.477Z,24.29
2018-07-05T11:52:48.312Z,24.37
2018-07-05T11:55:28.384Z,24.41
2018-07-05T11:58:08.120Z,23.97
2018-07-05T12:00:48.367Z,24.24
2018-07-05T12:03:28.105Z,23.97
2018-07-05T12:06:07.728Z,23.86
2018-07-05T12:08:47.763Z,23.61
2018-07-05T12:11:27.659Z,23.44
2018-07-05T12:14:07.292Z,23.63
2018-07-05T12:16:47.247Z,23.97
2018-07-05T12:19:26.831Z,23.80
2018-07-05T12:22:06.867Z,23.69
2018-07-05T12:24:46.533Z,23.85
2018-07-05T12:27:26.548Z,24.05
2018-07-05T12:30:06.677Z,24.22
2018-07-05T12:32:46.372Z,24.02
2018-07-05T12:35:26.132Z,24.24
2018-07-05T12:38:05.894Z,24.26
2018-07-05T12:40:45.567Z,24.36
2018-07-05T12:43:25.215Z,24.49
2018-07-05T12:46:04.993Z,24.67
2018-07-05T12:48:44.872Z,24.96
2018-07-05T12:51:24.627Z,25.12
2018-07-05T12:54:04.587Z,25.39
2018-07-05T12:56:44.400Z,25.62
2018-07-05T12:59:24.707Z,25.63
2018-07-05T13:02:04.572Z,25.75
2018-07-05T13:04:44.434Z,25.16
2018-07-05T13:07:24.260Z,25.14
2018-07-05T13:10:04.308Z,24.69
2018-07-05T13:12:44.305Z,24.72
2018-07-05T13:15:24.151Z,24.77
2018-07-05T13:18:03.756Z,24.93
2018-07-05T13:20:43.952Z,24.84
2018-07-05T13:23:23.560Z,25.02
2018-07-05T13:26:03.293Z,24.82
2018-07-05T13:28:43.053Z,24.85
2018-07-05T13:31:22.831Z,24.78
2018-07-05T13:34:02.649Z,24.85
2018-07-05T13:36:42.669Z,24.87
2018-07-05T13:39:22.320Z,24.91
2018-07-05T13:42:01.932Z,24.68
2018-07-05T13:44:41.684Z,24.67
2018-07-05T13:47:21.886Z,24.74
2018-07-05T13:50:01.493Z,24.37
2018-07-05T13:52:42.652Z,24.40
2018-07-05T13:55:22.985Z,24.09
2018-07-05T13:58:04.083Z,24.32
2018-07-05T14:00:44.146Z,24.40
2018-07-05T14:03:24.655Z,24.62
2018-07-05T14:06:04.775Z,24.45
2018-07-05T14:08:45.202Z,24.24
2018-07-05T14:11:26.657Z,24.54
2018-07-05T14:14:06.685Z,24.17
2018-07-05T14:16:47.168Z,24.24
2018-07-05T14:19:28.655Z,24.07
2018-07-05T14:22:10.059Z,23.93
2018-07-05T14:24:50.671Z,23.75
2018-07-05T14:27:31.457Z,23.57
2018-07-05T14:30:11.139Z,23.63
2018-07-05T14:32:51.259Z,23.47
2018-07-05T14:35:31.312Z,23.40
2018-07-05T14:38:12.049Z,23.31
2018-07-05T14:40:52.533Z,22.93
2018-07-05T14:43:32.256Z,22.88
2018-07-05T14:46:13.073Z,22.76
2018-07-05T14:48:54.463Z,23.14
2018-07-05T14:51:35.423Z,22.83
2018-07-05T14:54:16.965Z,23.13
2018-07-05T14:56:57.670Z,22.74
2018-07-05T14:59:37.736Z,22.66
2018-07-05T15:02:17.432Z,22.59
2018-07-05T15:04:57.114Z,22.64
2018-07-05T15:07:36.892Z,22.56
2018-07-05T15:10:16.821Z,22.23
2018-07-05T15:12:56.800Z,22.45
2018-07-05T15:15:36.441Z,22.35
2018-07-05T15:18:16.338Z,22.43
2018-07-05T15:20:56.190Z,22.55
2018-07-05T15:23:36.156Z,22.03
2018-07-05T15:26:15.980Z,22.10
2018-07-05T15:28:56.371Z,22.58
2018-07-05T15:31:36.244Z,22.53
2018-07-05T15:34:16.449Z,22.46
2018-07-05T15:36:56.240Z,22.31
2018-07-05T15:39:36.002Z,22.50
2018-07-05T15:42:15.795Z,22.21
2018-07-05T15:44:55.642Z,22.23
2018-07-05T15:47:35.357Z,22.44
2018-07-05T15:50:15.076Z,22.53
2018-07-05T15:52:54.936Z,22.39
2018-07-05T15:55:34.766Z,22.30
2018-07-05T15:58:14.532Z,22.36
2018-07-05T16:00:54.608Z,22.55
2018-07-05T16:03:35.302Z,22.46
2018-07-05T16:06:15.231Z,22.81
2018-07-05T16:08:54.887Z,22.68
2018-07-05T16:11:34.796Z,23.04
2018-07-05T16:14:14.852Z,23.13
2018-07-05T16:16:54.649Z,23.14
2018-07-05T16:19:34.608Z,23.08
2018-07-05T16:22:14.296Z,23.16
2018-07-05T16:24:54.063Z,22.92
2018-07-05T16:27:34.114Z,22.89
2018-07-05T16:30:13.852Z,23.08
2018-07-05T16:32:54.527Z,23.20
2018-07-05T16:35:34.374Z,23.19
2018-07-05T16:38:14.323Z,23.14
2018-07-05T16:40:55.079Z,23.16
2018-07-05T16:43:35.370Z,23.41
2018-07-05T16:46:15.264Z,23.34
2018-07-05T16:48:55.145Z,23.31
2018-07-05T16:51:34.914Z,23.25
2018-07-05T16:54:14.808Z,23.40
2018-07-05T16:56:54.609Z,23.33
2018-07-05T16:59:34.604Z,23.29
2018-07-05T17:02:14.404Z,23.23
2018-07-05T17:04:54.220Z,22.89
2018-07-05T17:07:33.816Z,23.03
2018-07-05T17:10:13.928Z,23.04
2018-07-05T17:12:53.839Z,23.20
2018-07-05T17:15:33.777Z,23.10
2018-07-05T17:18:13.535Z,22.90
2018-07-05T17:20:53.408Z,22.86
2018-07-05T17:23:33.116Z,22.90
2018-07-05T17:26:13.038Z,22.94
2018-07-05T17:28:52.935Z,22.72
2018-07-05T17:31:32.611Z,22.53
2018-07-05T17:34:12.572Z,22.61
2018-07-05T17:36:52.214Z,22.52
2018-07-05T17:39:31.921Z,22.48
2018-07-05T17:42:11.993Z,22.54
2018-07-05T17:44:51.744Z,22.35
2018-07-05T17:47:31.404Z,22.17
2018-07-05T17:50:11.255Z,22.27
2018-07-05T17:52:50.912Z,22.11
2018-07-05T17:55:30.692Z,22.28
2018-07-05T17:58:11.592Z,21.95
2018-07-05T18:00:51.359Z,21.99
2018-07-05T18:03:31.243Z,22.02
2018-07-05T18:06:11.327Z,21.53
2018-07-05T18:08:51.412Z,21.07
2018-07-05T18:11:31.109Z,21.23
2018-07-05T18:14:10.944Z,21.32
2018-07-05T18:16:50.966Z,21.29
2018-07-05T18:19:31.199Z,21.41
2018-07-05T18:22:11.058Z,21.21
2018-07-05T18:24:51.214Z,21.49
2018-07-05T18:27:30.927Z,21.50
2018-07-05T18:30:10.795Z,21.31
2018-07-05T18:32:50.673Z,21.49
2018-07-05T18:35:30.472Z,21.62
2018-07-05T18:38:10.223Z,21.63
2018-07-05T18:40:49.884Z,21.63
2018-07-05T18:43:29.529Z,21.61
2018-07-05T18:46:09.481Z,21.35
2018-07-05T18:48:49.626Z,21.12
2018-07-05T18:51:29.407Z,20.99
2018-07-05T18:54:09.418Z,21.18
2018-07-05T18:56:49.563Z,21.16
2018-07-05T18:59:29.300Z,21.06
2018-07-05T19:02:09.123Z,20.78
2018-07-05T19:04:48.880Z,21.01
2018-07-05T19:07:28.880Z,20.78
2018-07-05T19:10:08.711Z,20.80
2018-07-05T19:12:48.753Z,20.95
2018-07-05T19:15:28.616Z,20.91
2018-07-05T19:18:08.649Z,20.85
2018-07-05T19:20:48.726Z,20.99
2018-07-05T19:23:28.568Z,21.02
2018-07-05T19:26:08.256Z,21.08
2018-07-05T19:28:48.060Z,21.12
2018-07-05T19:31:27.987Z,21.03
2018-07-05T19:34:07.808Z,20.63
2018-07-05T19:36:47.635Z,20.52
2018-07-05T19:39:27.734Z,20.46
2018-07-05T19:42:07.471Z,20.41
2018-07-05T19:44:47.448Z,20.51
2018-07-05T19:47:27.156Z,20.47
2018-07-05T19:50:07.235Z,20.38
2018-07-05T19:52:47.210Z,20.08
2018-07-05T19:55:27.356Z,20.08
2018-07-05T19:58:07.009Z,20.18
2018-07-05T20:00:47.250Z,20.15
2018-07-05T20:03:27.008Z,20.18
2018-07-05T20:06:06.867Z,20.15
2018-07-05T20:08:46.669Z,20.43
2018-07-05T20:11:26.596Z,20.64
2018-07-05T20:14:06.400Z,20.57
2018-07-05T20:16:46.594Z,20.81
2018-07-05T20:19:26.346Z,20.66
2018-07-05T20:22:10.366Z,20.82
2018-07-05T20:24:49.976Z,20.68
2018-07-05T20:27:30.012Z,20.57
2018-07-05T20:30:09.821Z,20.01
2018-07-05T20:32:50.023Z,20.17
2018-07-05T20:35:29.961Z,19.90
2018-07-05T20:38:10.134Z,19.94
2018-07-05T20:40:49.963Z,20.02
2018-07-05T20:43:29.927Z,20.31
2018-07-05T20:46:09.731Z,20.23
2018-07-05T20:48:49.716Z,20.47
2018-07-05T20:51:29.639Z,20.69
2018-07-05T20:54:09.619Z,20.46
2018-07-05T20:56:49.443Z,20.14
2018-07-05T20:59:29.720Z,20.65
2018-07-05T21:02:09.764Z,20.65
2018-07-05T21:04:49.796Z,20.72
2018-07-05T21:07:29.559Z,20.67
2018-07-05T21:10:09.416Z,20.83
2018-07-05T21:12:49.201Z,20.93
2018-07-05T21:15:29.151Z,20.73
2018-07-05T21:18:08.875Z,20.36
2018-07-05T21:20:48.812Z,20.36
2018-07-05T21:23:28.933Z,20.24
2018-07-05T21:26:08.796Z,20.35
2018-07-05T21:28:48.453Z,20.47
2018-07-05T21:31:28.908Z,20.65
2018-07-05T21:34:08.657Z,20.70
2018-07-05T21:36:48.687Z,20.44
2018-07-05T21:39:28.373Z,20.43
2018-07-05T21:42:08.352Z,20.29
2018-07-05T21:44:48.065Z,20.16
2018-07-05T21:47:27.928Z,20.05
2018-07-05T21:50:07.984Z,20.34
2018-07-05T21:52:47.797Z,20.59
2018-07-05T21:55:27.604Z,20.69
2018-07-05T21:58:07.394Z,20.72
2018-07-05T22:00:47.151Z,20.70
2018-07-05T22:03:26.927Z,20.86
2018-07-05T22:06:06.797Z,20.66
2018-07-05T22:08:47.014Z,20.69
2018-07-05T22:11:26.595Z,20.65
2018-07-05T22:14:06.770Z,20.70
2018-07-05T22:16:52.000Z,20.42
2018-07-05T22:19:36.992Z,20.47
2018-07-05T22:22:21.977Z,20.36
2018-07-05T22:25:07.371Z,20.32
2018-07-05T22:27:52.540Z,20.38
2018-07-05T22:30:37.716Z,20.03
2018-07-05T22:33:17.376Z,19.92
2018-07-05T22:35:57.036Z,20.21
2018-07-05T22:38:36.640Z,20.26
2018-07-05T22:41:16.488Z,20.15
2018-07-05T22:43:56.260Z,19.93
2018-07-05T22:46:35.979Z,20.05
2018-07-05T22:49:15.880Z,20.01
2018-07-05T22:51:55.908Z,20.11
2018-07-05T22:54:35.704Z,20.15
2018-07-05T22:57:15.515Z,19.89
2018-07-05T22:59:55.235Z,20.00
2018-07-05T23:02:34.997Z,19.99
2018-07-05T23:05:14.801Z,20.13
2018-07-05T23:07:54.507Z,19.83
2018-07-05T23:10:34.388Z,19.96
2018-07-05T23:13:14.464Z,19.94
2018-07-05T23:15:54.067Z,19.87
2018-07-05T23:18:34.202Z,20.08
2018-07-05T23:21:14.012Z,19.85
2018-07-05T23:23:53.772Z,19.78
2018-07-05T23:26:33.427Z,19.85
2018-07-05T23:29:13.040Z,19.93
2018-07-05T23:31:53.003Z,20.01
2018-07-05T23:34:33.232Z,20.01
2018-07-05T23:37:13.092Z,20.08
2018-07-05T23:39:52.835Z,20.33
2018-07-05T23:42:33.264Z,20.31
2018-07-05T23:45:12.960Z,20.26
2018-07-05T23:47:52.680Z,20.08
2018-07-05T23:50:33.024Z,20.13
2018-07-05T23:53:12.795Z,19.96
2018-07-05T23:55:52.720Z,19.93
2018-07-05T23:58:32.608Z,19.80
